首页
METAR-TAF:

METAR-TAF

机场 :

Chandler Municipal Airport

钱德勒, 亞利桑那州, 美国

纬度: 33-16-09N, 经度: 111-48-40W, 海拔: 379米

当前天气观测

该预报发布于1小时和55分钟前的03:47 UTC
风速8节,风向南转西南
温度 28°C
湿度 10%
气压 1007 hPa
能見度: 16.1公里
天空无云

METAR: KCHD 250347Z 21008KT 10SM SKC 28/M06 A2975 RMK LAST

时间: 22:42 (05:42 UTC)


TAF: 丢失

超过4000个机场的气象观测和天气预报(METAR&TAF报告)。

可查询的气象台以黄色和红色小点在地图上表示。

将鼠标移到小点上方,可查看气象台名称。

然后点击查看天气观测和预报。

如需切换地图:点击带黑十字的绿色按钮放大地图;点击带横线的绿色按钮缩小地图;或者点击绿色箭头查看邻近地区的地图。


METAR-TAF: